sensor_id;sensor_type;location;lat;lon;timestamp;P1;durP1;ratioP1;P2;durP2;ratioP2
63536;SDS011;49686;51.880;5.632;2022-08-25T00:01:52;7.72;;;4.40;;
63536;SDS011;49686;51.880;5.632;2022-08-25T00:04:25;5.90;;;4.63;;
63536;SDS011;49686;51.880;5.632;2022-08-25T00:06:53;5.90;;;4.20;;
63536;SDS011;49686;51.880;5.632;2022-08-25T00:09:26;4.85;;;4.45;;
63536;SDS011;49686;51.880;5.632;2022-08-25T00:11:59;5.67;;;4.67;;
63536;SDS011;49686;51.880;5.632;2022-08-25T00:14:28;4.85;;;4.38;;
63536;SDS011;49686;51.880;5.632;2022-08-25T00:16:57;7.28;;;4.40;;
63536;SDS011;49686;51.880;5.632;2022-08-25T00:19:26;6.43;;;4.72;;
63536;SDS011;49686;51.880;5.632;2022-08-25T00:21:55;5.13;;;4.63;;
63536;SDS011;49686;51.880;5.632;2022-08-25T00:24:23;5.50;;;5.00;;
63536;SDS011;49686;51.880;5.632;2022-08-25T00:26:51;6.68;;;5.50;;
63536;SDS011;49686;51.880;5.632;2022-08-25T00:29:23;10.55;;;4.90;;
63536;SDS011;49686;51.880;5.632;2022-08-25T00:31:52;9.27;;;5.85;;
63536;SDS011;49686;51.880;5.632;2022-08-25T00:34:24;6.28;;;4.90;;
63536;SDS011;49686;51.880;5.632;2022-08-25T00:36:54;6.85;;;4.88;;
63536;SDS011;49686;51.880;5.632;2022-08-25T00:39:21;5.68;;;5.07;;
63536;SDS011;49686;51.880;5.632;2022-08-25T00:41:50;6.05;;;5.22;;
63536;SDS011;49686;51.880;5.632;2022-08-25T00:44:19;6.53;;;5.82;;
63536;SDS011;49686;51.880;5.632;2022-08-25T00:46:47;5.22;;;4.72;;
63536;SDS011;49686;51.880;5.632;2022-08-25T00:49:17;7.20;;;5.55;;
63536;SDS011;49686;51.880;5.632;2022-08-25T00:51:52;8.55;;;5.38;;
63536;SDS011;49686;51.880;5.632;2022-08-25T00:54:26;8.60;;;5.70;;
63536;SDS011;49686;51.880;5.632;2022-08-25T00:56:55;9.75;;;6.18;;
63536;SDS011;49686;51.880;5.632;2022-08-25T00:59:25;8.98;;;5.40;;
63536;SDS011;49686;51.880;5.632;2022-08-25T01:01:53;9.30;;;6.28;;
63536;SDS011;49686;51.880;5.632;2022-08-25T01:04:21;10.70;;;6.10;;
63536;SDS011;49686;51.880;5.632;2022-08-25T01:06:49;9.43;;;5.82;;
63536;SDS011;49686;51.880;5.632;2022-08-25T01:09:17;10.57;;;6.40;;
63536;SDS011;49686;51.880;5.632;2022-08-25T01:11:45;8.40;;;5.90;;
63536;SDS011;49686;51.880;5.632;2022-08-25T01:14:14;8.48;;;6.35;;
63536;SDS011;49686;51.880;5.632;2022-08-25T01:16:43;7.97;;;6.43;;
63536;SDS011;49686;51.880;5.632;2022-08-25T01:19:16;8.32;;;6.45;;
63536;SDS011;49686;51.880;5.632;2022-08-25T01:21:46;7.90;;;6.40;;
63536;SDS011;49686;51.880;5.632;2022-08-25T01:24:30;9.02;;;6.50;;
63536;SDS011;49686;51.880;5.632;2022-08-25T01:27:02;7.28;;;6.05;;
63536;SDS011;49686;51.880;5.632;2022-08-25T01:32:00;12.00;;;7.20;;
63536;SDS011;49686;51.880;5.632;2022-08-25T01:34:30;8.32;;;6.82;;
63536;SDS011;49686;51.880;5.632;2022-08-25T01:37:03;8.40;;;7.10;;
63536;SDS011;49686;51.880;5.632;2022-08-25T01:39:31;8.15;;;7.05;;
63536;SDS011;49686;51.880;5.632;2022-08-25T01:42:07;8.48;;;6.93;;
63536;SDS011;49686;51.880;5.632;2022-08-25T01:44:44;9.57;;;7.50;;
63536;SDS011;49686;51.880;5.632;2022-08-25T01:49:40;9.82;;;6.40;;
63536;SDS011;49686;51.880;5.632;2022-08-25T01:52:11;9.55;;;7.32;;
63536;SDS011;49686;51.880;5.632;2022-08-25T01:54:40;11.50;;;7.85;;
63536;SDS011;49686;51.880;5.632;2022-08-25T01:57:08;8.95;;;7.65;;
63536;SDS011;49686;51.880;5.632;2022-08-25T01:59:35;8.93;;;7.05;;
63536;SDS011;49686;51.880;5.632;2022-08-25T02:02:02;8.60;;;7.25;;
63536;SDS011;49686;51.880;5.632;2022-08-25T02:04:31;9.65;;;7.82;;
63536;SDS011;49686;51.880;5.632;2022-08-25T02:06:59;9.43;;;7.43;;
63536;SDS011;49686;51.880;5.632;2022-08-25T02:09:28;8.75;;;7.25;;
63536;SDS011;49686;51.880;5.632;2022-08-25T02:11:55;8.27;;;7.00;;
63536;SDS011;49686;51.880;5.632;2022-08-25T02:14:23;7.60;;;6.82;;
63536;SDS011;49686;51.880;5.632;2022-08-25T02:16:50;7.85;;;7.05;;
63536;SDS011;49686;51.880;5.632;2022-08-25T02:19:20;9.07;;;7.05;;
63536;SDS011;49686;51.880;5.632;2022-08-25T02:21:48;8.05;;;7.10;;
63536;SDS011;49686;51.880;5.632;2022-08-25T02:24:15;9.13;;;6.88;;
63536;SDS011;49686;51.880;5.632;2022-08-25T02:26:47;8.05;;;7.00;;
63536;SDS011;49686;51.880;5.632;2022-08-25T02:29:14;10.48;;;6.90;;
63536;SDS011;49686;51.880;5.632;2022-08-25T02:31:47;9.52;;;5.97;;
63536;SDS011;49686;51.880;5.632;2022-08-25T02:34:14;11.10;;;6.70;;
63536;SDS011;49686;51.880;5.632;2022-08-25T02:36:50;8.85;;;6.35;;
63536;SDS011;49686;51.880;5.632;2022-08-25T02:39:16;9.68;;;6.18;;
63536;SDS011;49686;51.880;5.632;2022-08-25T02:41:43;9.82;;;6.95;;
63536;SDS011;49686;51.880;5.632;2022-08-25T02:44:14;8.90;;;6.07;;
63536;SDS011;49686;51.880;5.632;2022-08-25T02:46:41;8.27;;;6.07;;
63536;SDS011;49686;51.880;5.632;2022-08-25T02:49:08;11.95;;;6.75;;
63536;SDS011;49686;51.880;5.632;2022-08-25T02:51:35;8.40;;;6.50;;
63536;SDS011;49686;51.880;5.632;2022-08-25T02:54:03;7.32;;;6.63;;
63536;SDS011;49686;51.880;5.632;2022-08-25T02:56:31;7.10;;;6.22;;
63536;SDS011;49686;51.880;5.632;2022-08-25T02:58:59;11.68;;;6.65;;
63536;SDS011;49686;51.880;5.632;2022-08-25T03:01:30;7.47;;;6.15;;
63536;SDS011;49686;51.880;5.632;2022-08-25T03:03:58;10.23;;;6.38;;
63536;SDS011;49686;51.880;5.632;2022-08-25T03:06:26;8.07;;;6.28;;
63536;SDS011;49686;51.880;5.632;2022-08-25T03:08:54;7.68;;;6.22;;
63536;SDS011;49686;51.880;5.632;2022-08-25T03:11:21;9.25;;;6.68;;
63536;SDS011;49686;51.880;5.632;2022-08-25T03:13:48;10.90;;;6.88;;
63536;SDS011;49686;51.880;5.632;2022-08-25T03:16:15;8.30;;;6.35;;
63536;SDS011;49686;51.880;5.632;2022-08-25T03:18:45;12.90;;;7.22;;
63536;SDS011;49686;51.880;5.632;2022-08-25T03:21:13;10.90;;;6.60;;
63536;SDS011;49686;51.880;5.632;2022-08-25T03:23:41;9.27;;;7.10;;
63536;SDS011;49686;51.880;5.632;2022-08-25T03:26:09;8.00;;;6.90;;
63536;SDS011;49686;51.880;5.632;2022-08-25T03:28:36;8.43;;;6.28;;
63536;SDS011;49686;51.880;5.632;2022-08-25T03:31:03;8.60;;;6.32;;
63536;SDS011;49686;51.880;5.632;2022-08-25T03:33:32;10.07;;;6.75;;
63536;SDS011;49686;51.880;5.632;2022-08-25T03:36:01;9.05;;;6.95;;
63536;SDS011;49686;51.880;5.632;2022-08-25T03:38:28;9.45;;;6.60;;
63536;SDS011;49686;51.880;5.632;2022-08-25T03:40:55;10.30;;;6.18;;
63536;SDS011;49686;51.880;5.632;2022-08-25T03:43:22;9.77;;;6.20;;
63536;SDS011;49686;51.880;5.632;2022-08-25T03:45:49;9.02;;;5.93;;
63536;SDS011;49686;51.880;5.632;2022-08-25T03:48:16;9.18;;;6.55;;
63536;SDS011;49686;51.880;5.632;2022-08-25T03:50:44;10.30;;;6.28;;
63536;SDS011;49686;51.880;5.632;2022-08-25T03:53:17;7.97;;;6.32;;
63536;SDS011;49686;51.880;5.632;2022-08-25T03:55:45;9.48;;;5.60;;
63536;SDS011;49686;51.880;5.632;2022-08-25T03:58:12;11.00;;;6.40;;
63536;SDS011;49686;51.880;5.632;2022-08-25T04:00:44;9.35;;;6.20;;
63536;SDS011;49686;51.880;5.632;2022-08-25T04:03:11;8.90;;;6.03;;
63536;SDS011;49686;51.880;5.632;2022-08-25T04:05:40;10.40;;;5.78;;
63536;SDS011;49686;51.880;5.632;2022-08-25T04:08:07;8.30;;;5.97;;
63536;SDS011;49686;51.880;5.632;2022-08-25T04:10:36;9.35;;;6.30;;
63536;SDS011;49686;51.880;5.632;2022-08-25T04:13:04;9.48;;;5.97;;
63536;SDS011;49686;51.880;5.632;2022-08-25T04:15:30;9.10;;;6.13;;
63536;SDS011;49686;51.880;5.632;2022-08-25T04:18:00;6.20;;;5.60;;
63536;SDS011;49686;51.880;5.632;2022-08-25T04:20:27;10.50;;;5.90;;
63536;SDS011;49686;51.880;5.632;2022-08-25T04:22:54;9.05;;;5.75;;
63536;SDS011;49686;51.880;5.632;2022-08-25T04:25:21;9.15;;;5.35;;
63536;SDS011;49686;51.880;5.632;2022-08-25T04:27:50;6.97;;;5.25;;
63536;SDS011;49686;51.880;5.632;2022-08-25T04:30:17;9.35;;;5.30;;
63536;SDS011;49686;51.880;5.632;2022-08-25T04:32:43;8.13;;;6.10;;
63536;SDS011;49686;51.880;5.632;2022-08-25T04:35:13;6.30;;;4.80;;
63536;SDS011;49686;51.880;5.632;2022-08-25T04:37:39;6.82;;;5.00;;
63536;SDS011;49686;51.880;5.632;2022-08-25T04:40:07;7.75;;;5.07;;
63536;SDS011;49686;51.880;5.632;2022-08-25T04:45:04;7.70;;;4.72;;
63536;SDS011;49686;51.880;5.632;2022-08-25T04:47:35;6.28;;;4.50;;
63536;SDS011;49686;51.880;5.632;2022-08-25T04:50:03;5.93;;;4.70;;
63536;SDS011;49686;51.880;5.632;2022-08-25T04:52:30;5.80;;;4.45;;
63536;SDS011;49686;51.880;5.632;2022-08-25T04:55:00;7.03;;;5.50;;
63536;SDS011;49686;51.880;5.632;2022-08-25T04:57:28;7.00;;;4.40;;
63536;SDS011;49686;51.880;5.632;2022-08-25T04:59:55;8.50;;;5.07;;
63536;SDS011;49686;51.880;5.632;2022-08-25T05:02:23;7.32;;;5.03;;
63536;SDS011;49686;51.880;5.632;2022-08-25T05:09:48;6.10;;;4.10;;
63536;SDS011;49686;51.880;5.632;2022-08-25T05:12:16;5.82;;;4.75;;
63536;SDS011;49686;51.880;5.632;2022-08-25T05:14:43;8.73;;;4.70;;
63536;SDS011;49686;51.880;5.632;2022-08-25T05:17:09;8.27;;;5.07;;
63536;SDS011;49686;51.880;5.632;2022-08-25T05:19:44;6.15;;;4.22;;
63536;SDS011;49686;51.880;5.632;2022-08-25T05:22:11;9.82;;;4.57;;
63536;SDS011;49686;51.880;5.632;2022-08-25T05:24:39;4.55;;;3.95;;
63536;SDS011;49686;51.880;5.632;2022-08-25T05:27:05;7.15;;;4.72;;
63536;SDS011;49686;51.880;5.632;2022-08-25T05:29:32;8.27;;;4.75;;
63536;SDS011;49686;51.880;5.632;2022-08-25T05:32:00;11.20;;;4.05;;
63536;SDS011;49686;51.880;5.632;2022-08-25T05:34:26;6.63;;;4.22;;
63536;SDS011;49686;51.880;5.632;2022-08-25T05:36:55;6.40;;;4.03;;
63536;SDS011;49686;51.880;5.632;2022-08-25T05:41:52;9.02;;;4.22;;
63536;SDS011;49686;51.880;5.632;2022-08-25T05:44:18;8.40;;;4.72;;
63536;SDS011;49686;51.880;5.632;2022-08-25T05:46:47;6.13;;;3.72;;
63536;SDS011;49686;51.880;5.632;2022-08-25T05:49:14;9.32;;;4.05;;
63536;SDS011;49686;51.880;5.632;2022-08-25T05:51:41;6.82;;;3.80;;
63536;SDS011;49686;51.880;5.632;2022-08-25T05:54:10;8.05;;;3.90;;
63536;SDS011;49686;51.880;5.632;2022-08-25T05:56:37;10.27;;;4.07;;
63536;SDS011;49686;51.880;5.632;2022-08-25T05:59:04;4.75;;;3.25;;
63536;SDS011;49686;51.880;5.632;2022-08-25T06:01:35;9.30;;;3.90;;
63536;SDS011;49686;51.880;5.632;2022-08-25T06:04:02;10.32;;;4.50;;
63536;SDS011;49686;51.880;5.632;2022-08-25T06:06:29;9.70;;;3.92;;
63536;SDS011;49686;51.880;5.632;2022-08-25T06:08:57;5.97;;;4.28;;
63536;SDS011;49686;51.880;5.632;2022-08-25T06:11:25;5.70;;;4.05;;
63536;SDS011;49686;51.880;5.632;2022-08-25T06:13:55;11.07;;;4.53;;
63536;SDS011;49686;51.880;5.632;2022-08-25T06:16:24;11.52;;;4.45;;
63536;SDS011;49686;51.880;5.632;2022-08-25T06:18:51;8.55;;;4.00;;
63536;SDS011;49686;51.880;5.632;2022-08-25T06:21:18;10.15;;;3.90;;
63536;SDS011;49686;51.880;5.632;2022-08-25T06:23:45;12.50;;;4.00;;
63536;SDS011;49686;51.880;5.632;2022-08-25T06:26:12;6.55;;;3.92;;
63536;SDS011;49686;51.880;5.632;2022-08-25T06:28:48;9.80;;;4.18;;
63536;SDS011;49686;51.880;5.632;2022-08-25T06:31:16;9.70;;;3.78;;
63536;SDS011;49686;51.880;5.632;2022-08-25T06:33:43;9.77;;;3.83;;
63536;SDS011;49686;51.880;5.632;2022-08-25T06:36:11;3.73;;;3.30;;
63536;SDS011;49686;51.880;5.632;2022-08-25T06:38:38;7.53;;;3.42;;
63536;SDS011;49686;51.880;5.632;2022-08-25T06:41:05;8.20;;;3.40;;
63536;SDS011;49686;51.880;5.632;2022-08-25T06:43:33;7.25;;;3.50;;
63536;SDS011;49686;51.880;5.632;2022-08-25T06:46:08;9.38;;;3.50;;
63536;SDS011;49686;51.880;5.632;2022-08-25T06:48:38;8.75;;;3.65;;
63536;SDS011;49686;51.880;5.632;2022-08-25T06:51:06;7.15;;;3.30;;
63536;SDS011;49686;51.880;5.632;2022-08-25T06:53:40;8.82;;;3.22;;
63536;SDS011;49686;51.880;5.632;2022-08-25T06:56:09;7.32;;;3.58;;
63536;SDS011;49686;51.880;5.632;2022-08-25T06:58:37;7.50;;;3.83;;
63536;SDS011;49686;51.880;5.632;2022-08-25T07:01:06;9.68;;;3.33;;
63536;SDS011;49686;51.880;5.632;2022-08-25T07:03:41;8.20;;;3.25;;
63536;SDS011;49686;51.880;5.632;2022-08-25T07:06:08;8.93;;;3.22;;
63536;SDS011;49686;51.880;5.632;2022-08-25T07:08:36;12.10;;;3.85;;
63536;SDS011;49686;51.880;5.632;2022-08-25T07:11:03;12.23;;;3.30;;
63536;SDS011;49686;51.880;5.632;2022-08-25T07:13:42;8.52;;;3.35;;
63536;SDS011;49686;51.880;5.632;2022-08-25T07:16:11;11.30;;;3.45;;
63536;SDS011;49686;51.880;5.632;2022-08-25T07:18:39;11.57;;;3.47;;
63536;SDS011;49686;51.880;5.632;2022-08-25T07:21:06;7.13;;;3.00;;
63536;SDS011;49686;51.880;5.632;2022-08-25T07:23:34;9.77;;;3.15;;
63536;SDS011;49686;51.880;5.632;2022-08-25T07:26:06;5.35;;;2.80;;
63536;SDS011;49686;51.880;5.632;2022-08-25T07:28:56;4.85;;;2.83;;
63536;SDS011;49686;51.880;5.632;2022-08-25T07:31:25;7.03;;;2.70;;
63536;SDS011;49686;51.880;5.632;2022-08-25T07:33:58;8.68;;;2.70;;
63536;SDS011;49686;51.880;5.632;2022-08-25T07:36:25;7.95;;;2.80;;
63536;SDS011;49686;51.880;5.632;2022-08-25T07:38:56;5.55;;;2.83;;
63536;SDS011;49686;51.880;5.632;2022-08-25T07:41:24;6.68;;;2.75;;
63536;SDS011;49686;51.880;5.632;2022-08-25T07:43:51;7.03;;;2.67;;
63536;SDS011;49686;51.880;5.632;2022-08-25T07:46:18;8.10;;;2.70;;
63536;SDS011;49686;51.880;5.632;2022-08-25T07:48:48;5.97;;;3.20;;
63536;SDS011;49686;51.880;5.632;2022-08-25T07:51:18;4.55;;;2.80;;
63536;SDS011;49686;51.880;5.632;2022-08-25T07:53:47;8.00;;;2.92;;
63536;SDS011;49686;51.880;5.632;2022-08-25T07:56:15;9.73;;;3.33;;
63536;SDS011;49686;51.880;5.632;2022-08-25T07:58:43;5.22;;;2.83;;
63536;SDS011;49686;51.880;5.632;2022-08-25T08:01:12;4.85;;;2.63;;
63536;SDS011;49686;51.880;5.632;2022-08-25T08:03:40;6.90;;;2.42;;
63536;SDS011;49686;51.880;5.632;2022-08-25T08:06:18;5.88;;;2.70;;
63536;SDS011;49686;51.880;5.632;2022-08-25T08:08:48;4.35;;;2.80;;
63536;SDS011;49686;51.880;5.632;2022-08-25T08:11:23;6.30;;;2.70;;
63536;SDS011;49686;51.880;5.632;2022-08-25T08:13:52;6.35;;;2.90;;
63536;SDS011;49686;51.880;5.632;2022-08-25T08:16:24;6.80;;;2.80;;
63536;SDS011;49686;51.880;5.632;2022-08-25T08:18:53;5.53;;;2.47;;
63536;SDS011;49686;51.880;5.632;2022-08-25T08:21:26;7.13;;;2.72;;
63536;SDS011;49686;51.880;5.632;2022-08-25T08:24:02;6.55;;;3.03;;
63536;SDS011;49686;51.880;5.632;2022-08-25T08:26:42;7.25;;;3.03;;
63536;SDS011;49686;51.880;5.632;2022-08-25T08:29:24;7.70;;;2.88;;
63536;SDS011;49686;51.880;5.632;2022-08-25T08:31:51;10.27;;;3.10;;
63536;SDS011;49686;51.880;5.632;2022-08-25T08:34:18;6.90;;;3.20;;
63536;SDS011;49686;51.880;5.632;2022-08-25T08:36:52;6.03;;;2.67;;
63536;SDS011;49686;51.880;5.632;2022-08-25T08:39:19;5.45;;;2.75;;
63536;SDS011;49686;51.880;5.632;2022-08-25T08:41:53;8.10;;;3.30;;
63536;SDS011;49686;51.880;5.632;2022-08-25T08:44:41;12.02;;;3.20;;
63536;SDS011;49686;51.880;5.632;2022-08-25T08:47:17;6.10;;;2.92;;
63536;SDS011;49686;51.880;5.632;2022-08-25T08:49:55;7.30;;;2.75;;
63536;SDS011;49686;51.880;5.632;2022-08-25T08:52:37;5.28;;;2.92;;
63536;SDS011;49686;51.880;5.632;2022-08-25T08:55:09;9.80;;;2.90;;
63536;SDS011;49686;51.880;5.632;2022-08-25T08:57:42;6.35;;;3.10;;
63536;SDS011;49686;51.880;5.632;2022-08-25T09:00:18;6.65;;;3.53;;
63536;SDS011;49686;51.880;5.632;2022-08-25T09:02:46;7.47;;;3.10;;
63536;SDS011;49686;51.880;5.632;2022-08-25T09:05:19;4.72;;;2.85;;
63536;SDS011;49686;51.880;5.632;2022-08-25T09:07:52;11.40;;;3.20;;
63536;SDS011;49686;51.880;5.632;2022-08-25T09:10:25;7.72;;;3.35;;
63536;SDS011;49686;51.880;5.632;2022-08-25T09:13:02;15.25;;;3.13;;
63536;SDS011;49686;51.880;5.632;2022-08-25T09:15:41;6.43;;;3.00;;
63536;SDS011;49686;51.880;5.632;2022-08-25T09:18:22;7.85;;;3.20;;
63536;SDS011;49686;51.880;5.632;2022-08-25T09:20:58;6.15;;;3.10;;
63536;SDS011;49686;51.880;5.632;2022-08-25T09:23:36;9.60;;;2.80;;
63536;SDS011;49686;51.880;5.632;2022-08-25T09:26:20;7.43;;;3.17;;
63536;SDS011;49686;51.880;5.632;2022-08-25T09:28:56;7.38;;;2.95;;
63536;SDS011;49686;51.880;5.632;2022-08-25T09:31:32;6.80;;;2.95;;
63536;SDS011;49686;51.880;5.632;2022-08-25T09:34:02;5.60;;;3.15;;
63536;SDS011;49686;51.880;5.632;2022-08-25T09:36:34;8.75;;;3.15;;
63536;SDS011;49686;51.880;5.632;2022-08-25T09:39:04;5.50;;;3.20;;
63536;SDS011;49686;51.880;5.632;2022-08-25T09:41:40;6.15;;;2.88;;
63536;SDS011;49686;51.880;5.632;2022-08-25T09:44:15;6.45;;;2.85;;
63536;SDS011;49686;51.880;5.632;2022-08-25T09:46:53;8.88;;;3.03;;
63536;SDS011;49686;51.880;5.632;2022-08-25T09:49:27;5.68;;;2.80;;
63536;SDS011;49686;51.880;5.632;2022-08-25T09:52:03;5.40;;;2.88;;
63536;SDS011;49686;51.880;5.632;2022-08-25T09:54:57;8.23;;;2.70;;
63536;SDS011;49686;51.880;5.632;2022-08-25T09:57:29;5.00;;;2.60;;
63536;SDS011;49686;51.880;5.632;2022-08-25T10:00:09;5.28;;;3.00;;
63536;SDS011;49686;51.880;5.632;2022-08-25T10:02:42;5.70;;;2.85;;
63536;SDS011;49686;51.880;5.632;2022-08-25T10:05:16;6.60;;;2.60;;
63536;SDS011;49686;51.880;5.632;2022-08-25T10:07:50;6.18;;;2.65;;
63536;SDS011;49686;51.880;5.632;2022-08-25T10:10:24;7.85;;;2.60;;
63536;SDS011;49686;51.880;5.632;2022-08-25T10:12:58;7.82;;;2.70;;
63536;SDS011;49686;51.880;5.632;2022-08-25T10:15:27;5.20;;;2.60;;
63536;SDS011;49686;51.880;5.632;2022-08-25T10:17:58;4.72;;;2.60;;
63536;SDS011;49686;51.880;5.632;2022-08-25T10:21:05;5.93;;;2.42;;
63536;SDS011;49686;51.880;5.632;2022-08-25T10:23:36;10.93;;;2.85;;
63536;SDS011;49686;51.880;5.632;2022-08-25T10:26:10;6.47;;;2.53;;
63536;SDS011;49686;51.880;5.632;2022-08-25T10:28:48;8.50;;;2.95;;
63536;SDS011;49686;51.880;5.632;2022-08-25T10:31:25;6.20;;;2.17;;
63536;SDS011;49686;51.880;5.632;2022-08-25T10:34:06;9.10;;;2.45;;
63536;SDS011;49686;51.880;5.632;2022-08-25T10:36:48;4.10;;;2.40;;
63536;SDS011;49686;51.880;5.632;2022-08-25T10:39:25;5.57;;;2.35;;
63536;SDS011;49686;51.880;5.632;2022-08-25T10:42:14;4.30;;;2.40;;
63536;SDS011;49686;51.880;5.632;2022-08-25T10:44:55;7.45;;;2.53;;
63536;SDS011;49686;51.880;5.632;2022-08-25T10:47:40;8.45;;;2.40;;
63536;SDS011;49686;51.880;5.632;2022-08-25T10:50:19;5.63;;;2.60;;
63536;SDS011;49686;51.880;5.632;2022-08-25T10:53:06;5.50;;;2.38;;
63536;SDS011;49686;51.880;5.632;2022-08-25T10:55:59;5.33;;;2.30;;
63536;SDS011;49686;51.880;5.632;2022-08-25T10:58:48;4.97;;;2.50;;
63536;SDS011;49686;51.880;5.632;2022-08-25T11:01:26;4.50;;;2.67;;
63536;SDS011;49686;51.880;5.632;2022-08-25T11:04:11;3.95;;;2.50;;
63536;SDS011;49686;51.880;5.632;2022-08-25T11:06:46;3.35;;;2.20;;
63536;SDS011;49686;51.880;5.632;2022-08-25T11:09:22;5.40;;;2.10;;
63536;SDS011;49686;51.880;5.632;2022-08-25T11:11:54;5.18;;;2.67;;
63536;SDS011;49686;51.880;5.632;2022-08-25T11:14:28;7.63;;;2.35;;
63536;SDS011;49686;51.880;5.632;2022-08-25T11:17:00;8.15;;;2.10;;
63536;SDS011;49686;51.880;5.632;2022-08-25T11:19:35;6.95;;;2.30;;
63536;SDS011;49686;51.880;5.632;2022-08-25T11:22:06;3.70;;;2.40;;
63536;SDS011;49686;51.880;5.632;2022-08-25T11:24:43;5.78;;;2.00;;
63536;SDS011;49686;51.880;5.632;2022-08-25T11:27:20;8.95;;;2.15;;
63536;SDS011;49686;51.880;5.632;2022-08-25T11:29:55;8.00;;;2.15;;
63536;SDS011;49686;51.880;5.632;2022-08-25T11:32:31;12.05;;;2.42;;
63536;SDS011;49686;51.880;5.632;2022-08-25T11:37:27;2.45;;;1.88;;
63536;SDS011;49686;51.880;5.632;2022-08-25T11:40:03;4.60;;;2.05;;
63536;SDS011;49686;51.880;5.632;2022-08-25T11:42:47;3.72;;;2.28;;
63536;SDS011;49686;51.880;5.632;2022-08-25T11:45:33;6.72;;;2.25;;
63536;SDS011;49686;51.880;5.632;2022-08-25T11:48:23;3.78;;;2.05;;
63536;SDS011;49686;51.880;5.632;2022-08-25T11:51:01;2.80;;;2.03;;
63536;SDS011;49686;51.880;5.632;2022-08-25T11:53:31;3.65;;;2.00;;
63536;SDS011;49686;51.880;5.632;2022-08-25T11:56:00;2.30;;;2.08;;
63536;SDS011;49686;51.880;5.632;2022-08-25T11:58:35;3.60;;;2.35;;
63536;SDS011;49686;51.880;5.632;2022-08-25T12:01:12;4.50;;;1.98;;
63536;SDS011;49686;51.880;5.632;2022-08-25T12:04:34;2.67;;;1.73;;
63536;SDS011;49686;51.880;5.632;2022-08-25T12:07:21;4.68;;;2.08;;
63536;SDS011;49686;51.880;5.632;2022-08-25T12:15:54;2.90;;;1.58;;
63536;SDS011;49686;51.880;5.632;2022-08-25T12:21:41;3.70;;;2.00;;
63536;SDS011;49686;51.880;5.632;2022-08-25T12:24:14;3.30;;;2.00;;
63536;SDS011;49686;51.880;5.632;2022-08-25T12:27:02;4.32;;;1.92;;
63536;SDS011;49686;51.880;5.632;2022-08-25T12:29:33;3.38;;;1.85;;
63536;SDS011;49686;51.880;5.632;2022-08-25T12:38:01;4.38;;;1.90;;
63536;SDS011;49686;51.880;5.632;2022-08-25T12:40:32;5.53;;;2.05;;
63536;SDS011;49686;51.880;5.632;2022-08-25T12:43:04;4.30;;;1.90;;
63536;SDS011;49686;51.880;5.632;2022-08-25T12:45:36;3.22;;;2.03;;
63536;SDS011;49686;51.880;5.632;2022-08-25T12:51:14;4.32;;;2.03;;
63536;SDS011;49686;51.880;5.632;2022-08-25T12:53:45;5.75;;;1.80;;
63536;SDS011;49686;51.880;5.632;2022-08-25T12:56:18;3.53;;;1.48;;
63536;SDS011;49686;51.880;5.632;2022-08-25T12:58:53;3.13;;;2.03;;
63536;SDS011;49686;51.880;5.632;2022-08-25T13:01:30;3.72;;;1.67;;
63536;SDS011;49686;51.880;5.632;2022-08-25T13:04:17;3.63;;;1.75;;
63536;SDS011;49686;51.880;5.632;2022-08-25T13:07:03;5.35;;;2.10;;
63536;SDS011;49686;51.880;5.632;2022-08-25T13:09:54;6.47;;;2.25;;
63536;SDS011;49686;51.880;5.632;2022-08-25T13:12:44;2.80;;;2.00;;
63536;SDS011;49686;51.880;5.632;2022-08-25T13:15:24;4.25;;;1.95;;
63536;SDS011;49686;51.880;5.632;2022-08-25T13:17:56;7.35;;;2.22;;
63536;SDS011;49686;51.880;5.632;2022-08-25T13:20:39;6.43;;;2.10;;
63536;SDS011;49686;51.880;5.632;2022-08-25T13:23:09;4.45;;;1.92;;
63536;SDS011;49686;51.880;5.632;2022-08-25T13:25:38;5.90;;;1.95;;
63536;SDS011;49686;51.880;5.632;2022-08-25T13:28:18;6.75;;;2.10;;
63536;SDS011;49686;51.880;5.632;2022-08-25T13:30:55;5.93;;;2.30;;
63536;SDS011;49686;51.880;5.632;2022-08-25T13:33:32;6.90;;;2.20;;
63536;SDS011;49686;51.880;5.632;2022-08-25T13:36:02;4.45;;;2.05;;
63536;SDS011;49686;51.880;5.632;2022-08-25T13:38:29;4.60;;;1.90;;
63536;SDS011;49686;51.880;5.632;2022-08-25T13:41:02;5.95;;;2.10;;
63536;SDS011;49686;51.880;5.632;2022-08-25T13:43:35;2.28;;;1.80;;
63536;SDS011;49686;51.880;5.632;2022-08-25T13:46:04;2.63;;;1.83;;
63536;SDS011;49686;51.880;5.632;2022-08-25T13:48:32;5.70;;;1.90;;
63536;SDS011;49686;51.880;5.632;2022-08-25T13:51:08;2.90;;;1.83;;
63536;SDS011;49686;51.880;5.632;2022-08-25T13:53:47;4.13;;;2.10;;
63536;SDS011;49686;51.880;5.632;2022-08-25T13:56:23;4.38;;;2.10;;
63536;SDS011;49686;51.880;5.632;2022-08-25T13:58:53;4.03;;;2.17;;
63536;SDS011;49686;51.880;5.632;2022-08-25T14:01:23;6.00;;;2.20;;
63536;SDS011;49686;51.880;5.632;2022-08-25T14:04:19;2.47;;;1.90;;
63536;SDS011;49686;51.880;5.632;2022-08-25T14:07:07;6.20;;;2.05;;
63536;SDS011;49686;51.880;5.632;2022-08-25T14:09:43;3.72;;;1.95;;
63536;SDS011;49686;51.880;5.632;2022-08-25T14:12:26;10.23;;;2.10;;
63536;SDS011;49686;51.880;5.632;2022-08-25T14:14:56;7.07;;;2.17;;
63536;SDS011;49686;51.880;5.632;2022-08-25T14:17:24;14.18;;;2.15;;
63536;SDS011;49686;51.880;5.632;2022-08-25T14:20:06;7.40;;;2.30;;
63536;SDS011;49686;51.880;5.632;2022-08-25T14:22:42;6.07;;;1.80;;
63536;SDS011;49686;51.880;5.632;2022-08-25T14:25:11;13.48;;;2.35;;
63536;SDS011;49686;51.880;5.632;2022-08-25T14:27:41;8.75;;;2.08;;
63536;SDS011;49686;51.880;5.632;2022-08-25T14:30:31;4.90;;;1.80;;
63536;SDS011;49686;51.880;5.632;2022-08-25T14:33:00;3.30;;;2.00;;
63536;SDS011;49686;51.880;5.632;2022-08-25T14:37:57;5.38;;;2.33;;
63536;SDS011;49686;51.880;5.632;2022-08-25T14:40:24;14.67;;;2.67;;
63536;SDS011;49686;51.880;5.632;2022-08-25T14:42:57;9.20;;;2.08;;
63536;SDS011;49686;51.880;5.632;2022-08-25T14:45:28;8.07;;;2.40;;
63536;SDS011;49686;51.880;5.632;2022-08-25T14:47:56;7.10;;;2.25;;
63536;SDS011;49686;51.880;5.632;2022-08-25T14:50:36;4.03;;;2.08;;
63536;SDS011;49686;51.880;5.632;2022-08-25T14:53:13;5.03;;;2.28;;
63536;SDS011;49686;51.880;5.632;2022-08-25T14:55:43;7.70;;;2.30;;
63536;SDS011;49686;51.880;5.632;2022-08-25T14:58:11;7.22;;;2.03;;
63536;SDS011;49686;51.880;5.632;2022-08-25T15:00:39;2.45;;;1.80;;
63536;SDS011;49686;51.880;5.632;2022-08-25T15:03:14;3.85;;;1.92;;
63536;SDS011;49686;51.880;5.632;2022-08-25T15:05:43;4.47;;;1.90;;
63536;SDS011;49686;51.880;5.632;2022-08-25T15:08:10;4.07;;;2.30;;
63536;SDS011;49686;51.880;5.632;2022-08-25T15:10:38;3.10;;;2.03;;
63536;SDS011;49686;51.880;5.632;2022-08-25T15:13:05;3.85;;;2.10;;
63536;SDS011;49686;51.880;5.632;2022-08-25T15:15:34;5.72;;;1.90;;
63536;SDS011;49686;51.880;5.632;2022-08-25T15:18:18;4.43;;;1.90;;
63536;SDS011;49686;51.880;5.632;2022-08-25T15:20:46;4.55;;;2.00;;
63536;SDS011;49686;51.880;5.632;2022-08-25T15:23:16;3.45;;;2.10;;
63536;SDS011;49686;51.880;5.632;2022-08-25T15:25:43;2.55;;;2.17;;
63536;SDS011;49686;51.880;5.632;2022-08-25T15:30:44;5.10;;;1.70;;
63536;SDS011;49686;51.880;5.632;2022-08-25T15:33:11;3.65;;;1.90;;
63536;SDS011;49686;51.880;5.632;2022-08-25T15:35:38;4.23;;;2.10;;
63536;SDS011;49686;51.880;5.632;2022-08-25T15:38:06;4.80;;;2.00;;
63536;SDS011;49686;51.880;5.632;2022-08-25T15:40:33;4.30;;;2.03;;
63536;SDS011;49686;51.880;5.632;2022-08-25T15:43:00;6.00;;;2.10;;
63536;SDS011;49686;51.880;5.632;2022-08-25T15:45:30;4.85;;;2.10;;
63536;SDS011;49686;51.880;5.632;2022-08-25T15:47:58;4.30;;;1.97;;
63536;SDS011;49686;51.880;5.632;2022-08-25T15:50:25;2.63;;;1.77;;
63536;SDS011;49686;51.880;5.632;2022-08-25T15:52:52;4.72;;;1.95;;
63536;SDS011;49686;51.880;5.632;2022-08-25T15:55:19;2.63;;;1.70;;